sensor_id;sensor_type;location;lat;lon;timestamp;pressure;altitude;pressure_sealevel;temperature;humidity
57779;BME280;43608;49.486;9.640;2024-01-30T00:00:02;100075.00;;;-1.91;97.48
57779;BME280;43608;49.486;9.640;2024-01-30T00:00:33;100094.69;;;-1.81;97.36
57779;BME280;43608;49.486;9.640;2024-01-30T00:01:03;100089.50;;;-1.81;97.45
57779;BME280;43608;49.486;9.640;2024-01-30T00:01:33;100095.63;;;-1.80;97.25
57779;BME280;43608;49.486;9.640;2024-01-30T00:02:04;100085.13;;;-1.82;97.48
57779;BME280;43608;49.486;9.640;2024-01-30T00:02:34;100062.28;;;-2.00;97.61
57779;BME280;43608;49.486;9.640;2024-01-30T00:03:05;100073.00;;;-1.95;97.21
57779;BME280;43608;49.486;9.640;2024-01-30T00:03:35;100088.28;;;-1.86;97.21
57779;BME280;43608;49.486;9.640;2024-01-30T00:04:05;100089.28;;;-1.84;97.32
57779;BME280;43608;49.486;9.640;2024-01-30T00:04:36;100090.09;;;-1.85;97.32
57779;BME280;43608;49.486;9.640;2024-01-30T00:05:06;100090.09;;;-1.85;97.60
57779;BME280;43608;49.486;9.640;2024-01-30T00:05:37;100086.59;;;-1.86;97.58
57779;BME280;43608;49.486;9.640;2024-01-30T00:06:08;100087.28;;;-1.88;97.50
57779;BME280;43608;49.486;9.640;2024-01-30T00:06:38;100085.69;;;-1.86;97.37
57779;BME280;43608;49.486;9.640;2024-01-30T00:07:09;100084.88;;;-1.85;97.60
57779;BME280;43608;49.486;9.640;2024-01-30T00:07:39;100088.28;;;-1.86;97.76
57779;BME280;43608;49.486;9.640;2024-01-30T00:08:09;100084.00;;;-1.86;97.75
57779;BME280;43608;49.486;9.640;2024-01-30T00:08:40;100093.59;;;-1.85;97.82
57779;BME280;43608;49.486;9.640;2024-01-30T00:09:10;100078.56;;;-1.89;98.07
57779;BME280;43608;49.486;9.640;2024-01-30T00:09:41;100098.81;;;-1.85;97.79
57779;BME280;43608;49.486;9.640;2024-01-30T00:10:11;100087.50;;;-1.85;97.78
57779;BME280;43608;49.486;9.640;2024-01-30T00:10:41;100092.69;;;-1.85;97.96
57779;BME280;43608;49.486;9.640;2024-01-30T00:11:12;100089.28;;;-1.84;97.82
57779;BME280;43608;49.486;9.640;2024-01-30T00:11:42;100096.22;;;-1.85;97.71
57779;BME280;43608;49.486;9.640;2024-01-30T00:12:12;100086.69;;;-1.84;97.87
57779;BME280;43608;49.486;9.640;2024-01-30T00:12:43;100090.09;;;-1.85;97.79
57779;BME280;43608;49.486;9.640;2024-01-30T00:13:13;100088.41;;;-1.85;97.86
57779;BME280;43608;49.486;9.640;2024-01-30T00:13:46;100090.09;;;-1.85;97.60
57779;BME280;43608;49.486;9.640;2024-01-30T00:14:16;100089.19;;;-1.86;97.66
57779;BME280;43608;49.486;9.640;2024-01-30T00:14:47;100061.16;;;-2.03;97.62
57779;BME280;43608;49.486;9.640;2024-01-30T00:15:17;100094.41;;;-1.86;97.69
57779;BME280;43608;49.486;9.640;2024-01-30T00:15:48;100094.31;;;-1.87;97.59
57779;BME280;43608;49.486;9.640;2024-01-30T00:16:22;100084.38;;;-1.93;97.62
57779;BME280;43608;49.486;9.640;2024-01-30T00:16:54;100089.09;;;-1.87;97.67
57779;BME280;43608;49.486;9.640;2024-01-30T00:17:24;100091.69;;;-1.87;97.77
57779;BME280;43608;49.486;9.640;2024-01-30T00:17:56;100002.50;;;-2.38;97.77
57779;BME280;43608;49.486;9.640;2024-01-30T00:18:26;100087.28;;;-1.88;97.62
57779;BME280;43608;49.486;9.640;2024-01-30T00:18:57;100071.88;;;-1.98;97.66
57779;BME280;43608;49.486;9.640;2024-01-30T00:19:27;100088.97;;;-1.89;97.66
57779;BME280;43608;49.486;9.640;2024-01-30T00:19:58;100094.16;;;-1.89;97.79
57779;BME280;43608;49.486;9.640;2024-01-30T00:20:28;100085.38;;;-1.91;97.76
57779;BME280;43608;49.486;9.640;2024-01-30T00:20:58;100088.00;;;-1.91;97.72
57779;BME280;43608;49.486;9.640;2024-01-30T00:21:29;100084.28;;;-1.94;97.73
57779;BME280;43608;49.486;9.640;2024-01-30T00:21:59;100088.88;;;-1.90;97.96
57779;BME280;43608;49.486;9.640;2024-01-30T00:22:29;100087.06;;;-1.91;97.66
57779;BME280;43608;49.486;9.640;2024-01-30T00:23:00;100087.06;;;-1.91;97.92
57779;BME280;43608;49.486;9.640;2024-01-30T00:23:31;100054.44;;;-2.13;97.72
57779;BME280;43608;49.486;9.640;2024-01-30T00:24:02;100093.09;;;-1.92;97.65
57779;BME280;43608;49.486;9.640;2024-01-30T00:24:32;100087.06;;;-1.91;97.84
57779;BME280;43608;49.486;9.640;2024-01-30T00:25:03;100089.66;;;-1.91;98.11
57779;BME280;43608;49.486;9.640;2024-01-30T00:25:33;100077.16;;;-1.97;97.72
57779;BME280;43608;49.486;9.640;2024-01-30T00:26:03;100075.69;;;-1.93;97.75
57779;BME280;43608;49.486;9.640;2024-01-30T00:26:35;100078.28;;;-1.93;97.89
57779;BME280;43608;49.486;9.640;2024-01-30T00:27:05;100076.97;;;-2.00;98.00
57779;BME280;43608;49.486;9.640;2024-01-30T00:27:36;100004.22;;;-2.39;97.51
57779;BME280;43608;49.486;9.640;2024-01-30T00:28:06;100089.66;;;-1.91;97.57
57779;BME280;43608;49.486;9.640;2024-01-30T00:28:38;100088.78;;;-1.92;97.69
57779;BME280;43608;49.486;9.640;2024-01-30T00:29:08;100083.59;;;-1.92;97.75
57779;BME280;43608;49.486;9.640;2024-01-30T00:29:38;100052.97;;;-2.09;97.73
57779;BME280;43608;49.486;9.640;2024-01-30T00:30:09;100087.06;;;-1.91;97.80
57779;BME280;43608;49.486;9.640;2024-01-30T00:30:40;100079.19;;;-1.93;97.60
57779;BME280;43608;49.486;9.640;2024-01-30T00:31:10;100073.97;;;-1.93;97.67
57779;BME280;43608;49.486;9.640;2024-01-30T00:31:43;100071.97;;;-1.97;97.58
57779;BME280;43608;49.486;9.640;2024-01-30T00:32:14;100088.00;;;-1.91;97.59
57779;BME280;43608;49.486;9.640;2024-01-30T00:32:44;100085.38;;;-1.91;97.62
57779;BME280;43608;49.486;9.640;2024-01-30T00:33:14;100079.28;;;-1.91;97.47
57779;BME280;43608;49.486;9.640;2024-01-30T00:33:46;100082.69;;;-1.92;97.68
57779;BME280;43608;49.486;9.640;2024-01-30T00:34:16;100081.88;;;-1.91;97.69
57779;BME280;43608;49.486;9.640;2024-01-30T00:34:46;100079.28;;;-1.91;97.73
57779;BME280;43608;49.486;9.640;2024-01-30T00:35:17;100082.78;;;-1.91;97.55
57779;BME280;43608;49.486;9.640;2024-01-30T00:35:47;100076.56;;;-1.93;97.69
57779;BME280;43608;49.486;9.640;2024-01-30T00:36:18;100083.59;;;-1.92;97.41
57779;BME280;43608;49.486;9.640;2024-01-30T00:36:48;100083.59;;;-1.92;97.38
57779;BME280;43608;49.486;9.640;2024-01-30T00:37:18;100078.28;;;-1.93;97.59
57779;BME280;43608;49.486;9.640;2024-01-30T00:37:49;100081.78;;;-1.93;97.56
57779;BME280;43608;49.486;9.640;2024-01-30T00:38:19;100081.69;;;-1.94;97.55
57779;BME280;43608;49.486;9.640;2024-01-30T00:38:49;100063.84;;;-2.02;97.30
57779;BME280;43608;49.486;9.640;2024-01-30T00:39:20;100083.38;;;-1.95;97.35
57779;BME280;43608;49.486;9.640;2024-01-30T00:39:50;100077.28;;;-1.95;97.34
57779;BME280;43608;49.486;9.640;2024-01-30T00:40:20;100082.47;;;-1.95;97.52
57779;BME280;43608;49.486;9.640;2024-01-30T00:40:51;100084.19;;;-1.96;97.60
57779;BME280;43608;49.486;9.640;2024-01-30T00:41:21;100077.16;;;-1.97;97.21
57779;BME280;43608;49.486;9.640;2024-01-30T00:41:51;100073.34;;;-2.02;97.67
57779;BME280;43608;49.486;9.640;2024-01-30T00:42:22;100078.88;;;-1.97;97.38
57779;BME280;43608;49.486;9.640;2024-01-30T00:42:53;100074.47;;;-1.98;97.74
57779;BME280;43608;49.486;9.640;2024-01-30T00:43:24;100076.28;;;-1.97;97.78
57779;BME280;43608;49.486;9.640;2024-01-30T00:43:57;100081.47;;;-1.97;97.51
57779;BME280;43608;49.486;9.640;2024-01-30T00:44:27;100076.06;;;-2.01;97.60
57779;BME280;43608;49.486;9.640;2024-01-30T00:44:58;100078.88;;;-1.97;97.74
57779;BME280;43608;49.486;9.640;2024-01-30T00:45:28;100081.47;;;-1.97;97.55
57779;BME280;43608;49.486;9.640;2024-01-30T00:45:59;100074.38;;;-2.00;97.57
57779;BME280;43608;49.486;9.640;2024-01-30T00:46:29;100071.66;;;-2.02;97.55
57779;BME280;43608;49.486;9.640;2024-01-30T00:47:00;100088.34;;;-1.98;97.63
57779;BME280;43608;49.486;9.640;2024-01-30T00:47:30;100082.25;;;-1.98;97.51
57779;BME280;43608;49.486;9.640;2024-01-30T00:48:03;100080.47;;;-2.00;97.99
57779;BME280;43608;49.486;9.640;2024-01-30T00:48:34;100085.75;;;-1.98;97.50
57779;BME280;43608;49.486;9.640;2024-01-30T00:49:04;100084.88;;;-1.98;97.73
57779;BME280;43608;49.486;9.640;2024-01-30T00:49:36;100065.81;;;-2.11;97.71
57779;BME280;43608;49.486;9.640;2024-01-30T00:50:06;100059.56;;;-2.14;97.66
57779;BME280;43608;49.486;9.640;2024-01-30T00:50:36;100089.03;;;-2.01;97.68
57779;BME280;43608;49.486;9.640;2024-01-30T00:51:07;100083.94;;;-1.99;97.85
57779;BME280;43608;49.486;9.640;2024-01-30T00:51:38;100082.03;;;-2.02;97.80
57779;BME280;43608;49.486;9.640;2024-01-30T00:52:08;100075.94;;;-2.02;97.63
57779;BME280;43608;49.486;9.640;2024-01-30T00:52:38;100090.84;;;-2.00;97.57
57779;BME280;43608;49.486;9.640;2024-01-30T00:53:10;100085.66;;;-2.00;97.99
57779;BME280;43608;49.486;9.640;2024-01-30T00:53:41;100084.78;;;-2.00;97.91
57779;BME280;43608;49.486;9.640;2024-01-30T00:54:11;100088.16;;;-2.01;98.10
57779;BME280;43608;49.486;9.640;2024-01-30T00:54:42;100086.44;;;-2.01;97.90
57779;BME280;43608;49.486;9.640;2024-01-30T00:55:13;100061.22;;;-2.15;97.75
57779;BME280;43608;49.486;9.640;2024-01-30T00:55:44;100084.53;;;-2.03;97.88
57779;BME280;43608;49.486;9.640;2024-01-30T00:56:14;100070.34;;;-2.08;97.79
57779;BME280;43608;49.486;9.640;2024-01-30T00:56:48;100088.16;;;-2.01;98.11
57779;BME280;43608;49.486;9.640;2024-01-30T00:57:18;100079.16;;;-2.06;97.87
57779;BME280;43608;49.486;9.640;2024-01-30T00:57:49;100089.84;;;-2.02;97.69
57779;BME280;43608;49.486;9.640;2024-01-30T00:58:19;100088.06;;;-2.03;97.81
57779;BME280;43608;49.486;9.640;2024-01-30T00:58:49;100087.22;;;-2.02;97.80
57779;BME280;43608;49.486;9.640;2024-01-30T00:59:20;100080.03;;;-2.06;97.78
57779;BME280;43608;49.486;9.640;2024-01-30T00:59:50;100080.94;;;-2.05;97.90
57779;BME280;43608;49.486;9.640;2024-01-30T01:00:21;100088.06;;;-2.03;97.71
57779;BME280;43608;49.486;9.640;2024-01-30T01:00:52;100086.94;;;-2.06;97.91
57779;BME280;43608;49.486;9.640;2024-01-30T01:01:22;100090.53;;;-2.04;97.76
57779;BME280;43608;49.486;9.640;2024-01-30T01:01:53;100093.25;;;-2.03;97.97
57779;BME280;43608;49.486;9.640;2024-01-30T01:02:23;100093.13;;;-2.04;97.89
57779;BME280;43608;49.486;9.640;2024-01-30T01:02:54;100097.53;;;-2.03;97.82
57779;BME280;43608;49.486;9.640;2024-01-30T01:03:25;100094.03;;;-2.04;97.84
57779;BME280;43608;49.486;9.640;2024-01-30T01:03:55;100094.03;;;-2.04;97.73
57779;BME280;43608;49.486;9.640;2024-01-30T01:04:25;100084.16;;;-2.09;97.78
57779;BME280;43608;49.486;9.640;2024-01-30T01:04:56;100058.00;;;-2.24;97.71
57779;BME280;43608;49.486;9.640;2024-01-30T01:05:27;100010.94;;;-2.54;97.86
57779;BME280;43608;49.486;9.640;2024-01-30T01:05:57;100091.25;;;-2.07;98.00
57779;BME280;43608;49.486;9.640;2024-01-30T01:06:27;100088.75;;;-2.05;97.86
57779;BME280;43608;49.486;9.640;2024-01-30T01:06:58;100094.72;;;-2.06;97.93
57779;BME280;43608;49.486;9.640;2024-01-30T01:07:28;100089.53;;;-2.06;97.78
57779;BME280;43608;49.486;9.640;2024-01-30T01:07:58;100096.53;;;-2.05;98.07
57779;BME280;43608;49.486;9.640;2024-01-30T01:08:29;100094.72;;;-2.06;97.90
57779;BME280;43608;49.486;9.640;2024-01-30T01:08:59;100100.81;;;-2.06;97.85
57779;BME280;43608;49.486;9.640;2024-01-30T01:09:30;100093.84;;;-2.07;97.89
57779;BME280;43608;49.486;9.640;2024-01-30T01:10:00;100096.44;;;-2.07;98.00
57779;BME280;43608;49.486;9.640;2024-01-30T01:10:30;100090.22;;;-2.09;97.96
57779;BME280;43608;49.486;9.640;2024-01-30T01:11:01;100087.72;;;-2.07;98.05
57779;BME280;43608;49.486;9.640;2024-01-30T01:11:31;100092.91;;;-2.07;98.27
57779;BME280;43608;49.486;9.640;2024-01-30T01:12:02;100094.63;;;-2.08;98.10
57779;BME280;43608;49.486;9.640;2024-01-30T01:12:32;100091.94;;;-2.09;97.96
57779;BME280;43608;49.486;9.640;2024-01-30T01:13:03;100092.91;;;-2.07;98.03
57779;BME280;43608;49.486;9.640;2024-01-30T01:13:33;100097.13;;;-2.09;97.93
57779;BME280;43608;49.486;9.640;2024-01-30T01:14:04;100079.22;;;-2.18;98.08
57779;BME280;43608;49.486;9.640;2024-01-30T01:14:35;100088.50;;;-2.08;97.98
57779;BME280;43608;49.486;9.640;2024-01-30T01:15:06;100091.94;;;-2.09;97.98
57779;BME280;43608;49.486;9.640;2024-01-30T01:15:39;100089.34;;;-2.09;98.09
57779;BME280;43608;49.486;9.640;2024-01-30T01:16:10;100084.16;;;-2.09;98.05
57779;BME280;43608;49.486;9.640;2024-01-30T01:16:40;100067.69;;;-2.22;98.08
57779;BME280;43608;49.486;9.640;2024-01-30T01:17:11;100087.63;;;-2.09;97.86
57779;BME280;43608;49.486;9.640;2024-01-30T01:17:42;100090.22;;;-2.09;98.06
57779;BME280;43608;49.486;9.640;2024-01-30T01:18:12;100076.50;;;-2.20;97.99
57779;BME280;43608;49.486;9.640;2024-01-30T01:18:42;100090.13;;;-2.10;97.68
57779;BME280;43608;49.486;9.640;2024-01-30T01:19:13;100088.41;;;-2.10;98.11
57779;BME280;43608;49.486;9.640;2024-01-30T01:19:43;100087.28;;;-2.13;98.10
57779;BME280;43608;49.486;9.640;2024-01-30T01:20:13;100089.22;;;-2.11;98.11
57779;BME280;43608;49.486;9.640;2024-01-30T01:20:44;100090.03;;;-2.12;98.01
57779;BME280;43608;49.486;9.640;2024-01-30T01:21:14;100093.50;;;-2.11;98.32
57779;BME280;43608;49.486;9.640;2024-01-30T01:21:45;100090.03;;;-2.12;98.08
57779;BME280;43608;49.486;9.640;2024-01-30T01:22:16;100092.63;;;-2.12;98.32
57779;BME280;43608;49.486;9.640;2024-01-30T01:22:47;100092.63;;;-2.12;98.11
57779;BME280;43608;49.486;9.640;2024-01-30T01:23:17;100089.09;;;-2.12;98.44
57779;BME280;43608;49.486;9.640;2024-01-30T01:23:48;100047.78;;;-2.35;98.12
57779;BME280;43608;49.486;9.640;2024-01-30T01:24:18;100090.81;;;-2.13;98.04
57779;BME280;43608;49.486;9.640;2024-01-30T01:24:49;100096.00;;;-2.13;98.01
57779;BME280;43608;49.486;9.640;2024-01-30T01:25:19;100091.59;;;-2.14;98.56
57779;BME280;43608;49.486;9.640;2024-01-30T01:25:49;100081.03;;;-2.17;98.23
57779;BME280;43608;49.486;9.640;2024-01-30T01:26:20;100090.81;;;-2.13;98.31
57779;BME280;43608;49.486;9.640;2024-01-30T01:26:51;100087.19;;;-2.15;98.13
57779;BME280;43608;49.486;9.640;2024-01-30T01:27:21;100085.53;;;-2.14;98.11
57779;BME280;43608;49.486;9.640;2024-01-30T01:27:52;100090.81;;;-2.13;98.24
57779;BME280;43608;49.486;9.640;2024-01-30T01:28:22;100097.81;;;-2.12;98.04
57779;BME280;43608;49.486;9.640;2024-01-30T01:28:53;100091.72;;;-2.12;98.16
57779;BME280;43608;49.486;9.640;2024-01-30T01:29:23;100079.91;;;-2.21;97.98
57779;BME280;43608;49.486;9.640;2024-01-30T01:29:58;100083.63;;;-2.17;98.04
57779;BME280;43608;49.486;9.640;2024-01-30T01:30:29;100092.63;;;-2.12;98.06
57779;BME280;43608;49.486;9.640;2024-01-30T01:31:00;100094.31;;;-2.12;98.26
57779;BME280;43608;49.486;9.640;2024-01-30T01:31:38;100089.91;;;-2.13;98.09
57779;BME280;43608;49.486;9.640;2024-01-30T01:32:14;100093.41;;;-2.13;98.08
57779;BME280;43608;49.486;9.640;2024-01-30T01:32:45;100090.59;;;-2.16;98.03
57779;BME280;43608;49.486;9.640;2024-01-30T01:33:20;100088.00;;;-2.16;98.12
57779;BME280;43608;49.486;9.640;2024-01-30T01:33:51;100095.09;;;-2.13;97.93
57779;BME280;43608;49.486;9.640;2024-01-30T01:34:22;100096.00;;;-2.13;97.98
57779;BME280;43608;49.486;9.640;2024-01-30T01:34:53;100091.72;;;-2.12;98.15
57779;BME280;43608;49.486;9.640;2024-01-30T01:35:24;100101.22;;;-2.13;98.04
57779;BME280;43608;49.486;9.640;2024-01-30T01:35:55;100093.41;;;-2.13;98.06
57779;BME280;43608;49.486;9.640;2024-01-30T01:36:26;100096.00;;;-2.13;97.78
57779;BME280;43608;49.486;9.640;2024-01-30T01:36:56;100096.00;;;-2.13;97.84
57779;BME280;43608;49.486;9.640;2024-01-30T01:37:27;100095.09;;;-2.13;98.15
57779;BME280;43608;49.486;9.640;2024-01-30T01:37:58;100099.50;;;-2.12;98.03
57779;BME280;43608;49.486;9.640;2024-01-30T01:38:30;100094.69;;;-2.20;97.95
57779;BME280;43608;49.486;9.640;2024-01-30T01:39:00;100096.69;;;-2.16;97.93
57779;BME280;43608;49.486;9.640;2024-01-30T01:39:31;100093.41;;;-2.13;97.98
57779;BME280;43608;49.486;9.640;2024-01-30T01:40:01;100094.31;;;-2.12;98.12
57779;BME280;43608;49.486;9.640;2024-01-30T01:40:31;100092.41;;;-2.15;97.80
57779;BME280;43608;49.486;9.640;2024-01-30T01:41:02;100093.41;;;-2.13;97.94
57779;BME280;43608;49.486;9.640;2024-01-30T01:41:32;100107.28;;;-2.12;97.77
57779;BME280;43608;49.486;9.640;2024-01-30T01:42:03;100094.19;;;-2.14;98.01
57779;BME280;43608;49.486;9.640;2024-01-30T01:42:34;100087.19;;;-2.15;97.94
57779;BME280;43608;49.486;9.640;2024-01-30T01:43:05;100089.59;;;-2.18;97.93
57779;BME280;43608;49.486;9.640;2024-01-30T01:43:36;100091.59;;;-2.14;98.03
57779;BME280;43608;49.486;9.640;2024-01-30T01:44:08;100097.69;;;-2.13;97.99
57779;BME280;43608;49.486;9.640;2024-01-30T01:44:39;100093.31;;;-2.14;98.09
57779;BME280;43608;49.486;9.640;2024-01-30T01:45:09;100090.72;;;-2.14;97.84
57779;BME280;43608;49.486;9.640;2024-01-30T01:45:39;100094.19;;;-2.14;98.00
57779;BME280;43608;49.486;9.640;2024-01-30T01:46:10;100095.00;;;-2.15;97.70
57779;BME280;43608;49.486;9.640;2024-01-30T01:46:40;100093.31;;;-2.14;97.66
57779;BME280;43608;49.486;9.640;2024-01-30T01:47:11;100088.81;;;-2.17;97.97
57779;BME280;43608;49.486;9.640;2024-01-30T01:47:41;100095.00;;;-2.15;97.99
57779;BME280;43608;49.486;9.640;2024-01-30T01:48:12;100064.47;;;-2.31;97.68
57779;BME280;43608;49.486;9.640;2024-01-30T01:48:43;100095.00;;;-2.15;97.84
57779;BME280;43608;49.486;9.640;2024-01-30T01:49:15;100093.19;;;-2.16;97.68
57779;BME280;43608;49.486;9.640;2024-01-30T01:49:45;100088.69;;;-2.19;98.00
57779;BME280;43608;49.486;9.640;2024-01-30T01:50:16;100099.19;;;-2.17;97.75
57779;BME280;43608;49.486;9.640;2024-01-30T01:50:48;100094.09;;;-2.16;98.01
57779;BME280;43608;49.486;9.640;2024-01-30T01:51:19;100094.91;;;-2.17;97.82
57779;BME280;43608;49.486;9.640;2024-01-30T01:51:51;100101.91;;;-2.16;98.02
57779;BME280;43608;49.486;9.640;2024-01-30T01:52:21;100092.19;;;-2.18;97.88
57779;BME280;43608;49.486;9.640;2024-01-30T01:52:52;100105.28;;;-2.17;97.87
57779;BME280;43608;49.486;9.640;2024-01-30T01:53:23;100101.81;;;-2.17;97.87
57779;BME280;43608;49.486;9.640;2024-01-30T01:53:55;100090.06;;;-2.24;98.16
57779;BME280;43608;49.486;9.640;2024-01-30T01:54:26;100099.19;;;-2.17;98.05
57779;BME280;43608;49.486;9.640;2024-01-30T01:54:58;100096.59;;;-2.17;98.08
57779;BME280;43608;49.486;9.640;2024-01-30T01:55:29;100094.00;;;-2.17;97.96
57779;BME280;43608;49.486;9.640;2024-01-30T01:56:00;100094.91;;;-2.17;97.89
57779;BME280;43608;49.486;9.640;2024-01-30T01:56:32;100089.59;;;-2.18;98.00
57779;BME280;43608;49.486;9.640;2024-01-30T01:57:03;100088.69;;;-2.19;97.88
57779;BME280;43608;49.486;9.640;2024-01-30T01:57:34;100100.09;;;-2.17;98.11
57779;BME280;43608;49.486;9.640;2024-01-30T01:58:04;100093.09;;;-2.18;98.10
57779;BME280;43608;49.486;9.640;2024-01-30T01:58:35;100099.19;;;-2.17;98.26
57779;BME280;43608;49.486;9.640;2024-01-30T01:59:07;100094.91;;;-2.17;98.29
57779;BME280;43608;49.486;9.640;2024-01-30T01:59:38;100091.41;;;-2.17;98.27
57779;BME280;43608;49.486;9.640;2024-01-30T02:00:09;100094.91;;;-2.17;98.31
57779;BME280;43608;49.486;9.640;2024-01-30T02:00:40;100091.41;;;-2.17;98.18
57779;BME280;43608;49.486;9.640;2024-01-30T02:01:13;100084.31;;;-2.20;98.18
57779;BME280;43608;49.486;9.640;2024-01-30T02:01:44;100094.00;;;-2.17;98.15
57779;BME280;43608;49.486;9.640;2024-01-30T02:02:17;100088.69;;;-2.19;98.10
57779;BME280;43608;49.486;9.640;2024-01-30T02:02:49;100080.88;;;-2.19;98.19
57779;BME280;43608;49.486;9.640;2024-01-30T02:03:19;100091.41;;;-2.17;98.53
57779;BME280;43608;49.486;9.640;2024-01-30T02:03:51;100091.41;;;-2.17;97.96
57779;BME280;43608;49.486;9.640;2024-01-30T02:04:22;100092.28;;;-2.17;98.29
57779;BME280;43608;49.486;9.640;2024-01-30T02:04:52;100100.88;;;-2.18;98.25
57779;BME280;43608;49.486;9.640;2024-01-30T02:05:22;100102.69;;;-2.17;98.09
57779;BME280;43608;49.486;9.640;2024-01-30T02:05:54;100099.06;;;-2.19;98.16
57779;BME280;43608;49.486;9.640;2024-01-30T02:06:26;100091.41;;;-2.17;98.17
57779;BME280;43608;49.486;9.640;2024-01-30T02:06:56;100097.41;;;-2.18;98.14
57779;BME280;43608;49.486;9.640;2024-01-30T02:07:27;100090.50;;;-2.18;98.00
57779;BME280;43608;49.486;9.640;2024-01-30T02:07:58;100094.91;;;-2.17;97.92
57779;BME280;43608;49.486;9.640;2024-01-30T02:08:28;100092.19;;;-2.18;98.01
57779;BME280;43608;49.486;9.640;2024-01-30T02:08:59;100100.88;;;-2.18;97.91
57779;BME280;43608;49.486;9.640;2024-01-30T02:09:29;100089.50;;;-2.20;97.82
57779;BME280;43608;49.486;9.640;2024-01-30T02:09:59;100072.16;;;-2.33;97.88
57779;BME280;43608;49.486;9.640;2024-01-30T02:10:30;100088.69;;;-2.19;98.09
57779;BME280;43608;49.486;9.640;2024-01-30T02:11:00;100051.31;;;-2.46;98.11
57779;BME280;43608;49.486;9.640;2024-01-30T02:11:31;100052.66;;;-2.39;98.12
57779;BME280;43608;49.486;9.640;2024-01-30T02:12:02;100086.91;;;-2.20;98.08
57779;BME280;43608;49.486;9.640;2024-01-30T02:12:32;100092.78;;;-2.22;98.39
57779;BME280;43608;49.486;9.640;2024-01-30T02:13:05;100080.59;;;-2.23;98.25
57779;BME280;43608;49.486;9.640;2024-01-30T02:13:36;100096.38;;;-2.20;98.11
57779;BME280;43608;49.486;9.640;2024-01-30T02:14:06;100088.38;;;-2.23;98.48
57779;BME280;43608;49.486;9.640;2024-01-30T02:14:47;100082.16;;;-2.25;98.20
57779;BME280;43608;49.486;9.640;2024-01-30T02:15:18;100097.16;;;-2.21;98.43
57779;BME280;43608;49.486;9.640;2024-01-30T02:15:51;100071.25;;;-2.33;98.09
57779;BME280;43608;49.486;9.640;2024-01-30T02:16:22;100093.66;;;-2.22;98.24
57779;BME280;43608;49.486;9.640;2024-01-30T02:16:52;100092.78;;;-2.22;98.04
57779;BME280;43608;49.486;9.640;2024-01-30T02:17:23;100086.56;;;-2.24;98.07
57779;BME280;43608;49.486;9.640;2024-01-30T02:17:54;100094.56;;;-2.21;98.17
57779;BME280;43608;49.486;9.640;2024-01-30T02:18:24;100082.84;;;-2.28;98.16
57779;BME280;43608;49.486;9.640;2024-01-30T02:18:54;100090.06;;;-2.24;98.15
57779;BME280;43608;49.486;9.640;2024-01-30T02:19:25;100090.97;;;-2.23;98.39
57779;BME280;43608;49.486;9.640;2024-01-30T02:19:55;100090.97;;;-2.23;98.35
57779;BME280;43608;49.486;9.640;2024-01-30T02:20:27;100092.66;;;-2.24;98.20
57779;BME280;43608;49.486;9.640;2024-01-30T02:21:03;100067.56;;;-2.37;98.19
57779;BME280;43608;49.486;9.640;2024-01-30T02:21:34;100090.88;;;-2.25;98.56
57779;BME280;43608;49.486;9.640;2024-01-30T02:22:04;100089.16;;;-2.24;98.39
57779;BME280;43608;49.486;9.640;2024-01-30T02:22:36;100064.53;;;-2.43;98.52
57779;BME280;43608;49.486;9.640;2024-01-30T02:23:09;100093.47;;;-2.25;98.33
57779;BME280;43608;49.486;9.640;2024-01-30T02:23:40;100084.56;;;-2.28;98.11
57779;BME280;43608;49.486;9.640;2024-01-30T02:24:11;100095.16;;;-2.25;98.47
57779;BME280;43608;49.486;9.640;2024-01-30T02:24:41;100085.44;;;-2.28;98.31
57779;BME280;43608;49.486;9.640;2024-01-30T02:25:11;100085.56;;;-2.26;98.19
57779;BME280;43608;49.486;9.640;2024-01-30T02:25:42;100080.16;;;-2.29;98.22
57779;BME280;43608;49.486;9.640;2024-01-30T02:26:16;100093.25;;;-2.28;98.21
57779;BME280;43608;49.486;9.640;2024-01-30T02:26:46;100088.03;;;-2.28;98.27
57779;BME280;43608;49.486;9.640;2024-01-30T02:27:16;100087.84;;;-2.31;98.43
57779;BME280;43608;49.486;9.640;2024-01-30T02:27:47;100091.56;;;-2.27;98.29
57779;BME280;43608;49.486;9.640;2024-01-30T02:28:17;100093.25;;;-2.28;98.19
57779;BME280;43608;49.486;9.640;2024-01-30T02:28:47;100070.72;;;-2.41;98.25
57779;BME280;43608;49.486;9.640;2024-01-30T02:29:18;100091.44;;;-2.29;98.34
57779;BME280;43608;49.486;9.640;2024-01-30T02:29:48;100089.75;;;-2.28;98.18
57779;BME280;43608;49.486;9.640;2024-01-30T02:30:18;100086.25;;;-2.29;98.27
57779;BME280;43608;49.486;9.640;2024-01-30T02:30:49;100086.25;;;-2.29;98.17
57779;BME280;43608;49.486;9.640;2024-01-30T02:31:19;100079.03;;;-2.33;98.17
57779;BME280;43608;49.486;9.640;2024-01-30T02:31:49;100078.44;;;-2.29;98.10
57779;BME280;43608;49.486;9.640;2024-01-30T02:32:20;100089.66;;;-2.30;98.19
57779;BME280;43608;49.486;9.640;2024-01-30T02:32:50;100083.44;;;-2.32;98.33
57779;BME280;43608;49.486;9.640;2024-01-30T02:33:21;100083.63;;;-2.29;98.43
57779;BME280;43608;49.486;9.640;2024-01-30T02:33:54;100088.84;;;-2.29;98.24
57779;BME280;43608;49.486;9.640;2024-01-30T02:34:24;100086.25;;;-2.29;98.13
57779;BME280;43608;49.486;9.640;2024-01-30T02:34:54;100077.56;;;-2.29;98.53
57779;BME280;43608;49.486;9.640;2024-01-30T02:35:25;100083.44;;;-2.32;98.20
57779;BME280;43608;49.486;9.640;2024-01-30T02:35:55;100081.72;;;-2.32;98.18
57779;BME280;43608;49.486;9.640;2024-01-30T02:36:25;100084.47;;;-2.30;98.48
57779;BME280;43608;49.486;9.640;2024-01-30T02:36:56;100075.44;;;-2.35;98.38
57779;BME280;43608;49.486;9.640;2024-01-30T02:37:26;100087.16;;;-2.28;98.31
57779;BME280;43608;49.486;9.640;2024-01-30T02:37:56;100081.72;;;-2.32;98.50
57779;BME280;43608;49.486;9.640;2024-01-30T02:38:27;100083.53;;;-2.30;98.25
57779;BME280;43608;49.486;9.640;2024-01-30T02:38:58;100087.94;;;-2.29;98.51
57779;BME280;43608;49.486;9.640;2024-01-30T02:39:29;100084.31;;;-2.32;98.55
57779;BME280;43608;49.486;9.640;2024-01-30T02:39:59;100089.66;;;-2.30;98.32
57779;BME280;43608;49.486;9.640;2024-01-30T02:40:30;100084.47;;;-2.30;98.26
57779;BME280;43608;49.486;9.640;2024-01-30T02:41:00;100079.13;;;-2.32;98.16